Time;durP1;ratioP1;P1;durP2;ratioP2;P2;SDS_P1;SDS_P2;PMS_P1;PMS_P2;Temp;Humidity;BMP_temperature;BMP_pressure;BME280_temperature;BME280_humidity;BME280_pressure;Samples;Min_cycle;Max_cycle;Signal;HPM_P1;HPM_P2
2020/12/01 00:01:10;;;;;;;4.17;1.70;;;8.10;99.90;;;;;;5134080;28;20568;-92
2020/12/01 00:03:38;;;;;;;5.50;1.40;;;8.10;99.90;;;;;;5132087;28;20319;-92
2020/12/01 00:06:05;;;;;;;4.70;1.80;;;8.00;99.90;;;;;;5132360;28;20200;-91
2020/12/01 00:08:33;;;;;;;6.53;1.53;;;8.10;99.90;;;;;;5131493;28;20726;-93
2020/12/01 00:10:59;;;;;;;6.40;1.60;;;8.20;99.90;;;;;;5131935;28;20728;-91
2020/12/01 00:13:26;;;;;;;8.20;1.70;;;8.20;99.90;;;;;;5131643;28;20195;-94
2020/12/01 00:15:53;;;;;;;7.40;2.20;;;8.10;99.90;;;;;;5118153;28;20193;-92
2020/12/01 00:18:19;;;;;;;3.70;1.30;;;8.10;99.90;;;;;;5118062;28;20231;-92
2020/12/01 00:20:45;;;;;;;11.07;1.90;;;8.20;99.90;;;;;;5118731;28;20196;-92
2020/12/01 00:23:14;;;;;;;10.53;2.50;;;8.10;99.90;;;;;;5118441;28;20663;-93
2020/12/01 00:25:41;;;;;;;10.77;2.33;;;8.00;99.90;;;;;;5117669;28;20208;-91
2020/12/01 00:28:08;;;;;;;4.07;1.73;;;8.20;99.90;;;;;;5117446;28;20231;-91
2020/12/01 00:30:36;;;;;;;10.67;2.37;;;8.10;99.90;;;;;;5118253;28;20201;-91
2020/12/01 00:33:03;;;;;;;7.90;2.07;;;8.00;99.90;;;;;;5117622;28;20257;-93
2020/12/01 00:35:31;;;;;;;8.13;1.97;;;8.10;99.90;;;;;;5117455;28;20216;-90
2020/12/01 00:37:57;;;;;;;10.13;2.40;;;8.00;99.90;;;;;;5117508;28;20224;-94
2020/12/01 00:40:24;;;;;;;14.40;2.53;;;8.10;99.90;;;;;;5117136;28;20193;-91
2020/12/01 00:42:50;;;;;;;9.90;2.07;;;8.10;99.90;;;;;;5117297;28;20220;-90
2020/12/01 00:45:17;;;;;;;15.27;2.70;;;8.20;99.90;;;;;;5117101;28;20675;-92
2020/12/01 00:47:44;;;;;;;10.50;3.27;;;8.30;99.90;;;;;;5116973;28;20232;-90
2020/12/01 00:50:14;;;;;;;15.70;3.23;;;8.30;99.90;;;;;;5116909;28;20219;-94
2020/12/01 00:52:40;;;;;;;20.00;3.00;;;8.30;99.90;;;;;;5117040;28;20565;-90
2020/12/01 00:55:07;;;;;;;15.00;2.83;;;8.40;99.90;;;;;;5117203;28;20193;-91
2020/12/01 00:57:34;;;;;;;12.57;2.93;;;8.30;99.90;;;;;;5116978;28;20307;-91
2020/12/01 01:00:01;;;;;;;16.93;2.70;;;8.40;99.90;;;;;;5116919;28;20647;-90
2020/12/01 01:02:27;;;;;;;13.17;2.67;;;8.20;99.90;;;;;;5117705;28;20204;-92
2020/12/01 01:04:54;;;;;;;16.43;3.00;;;8.00;99.90;;;;;;5117051;28;20269;-90
2020/12/01 01:07:23;;;;;;;12.40;2.70;;;7.90;99.90;;;;;;5099088;28;20204;-92
2020/12/01 01:09:50;;;;;;;20.07;3.10;;;7.90;99.90;;;;;;5116679;28;20193;-91
2020/12/01 01:12:16;;;;;;;11.13;2.60;;;8.00;99.90;;;;;;5116929;28;20220;-91
2020/12/01 01:14:43;;;;;;;15.60;2.67;;;8.00;99.90;;;;;;5116522;28;20238;-91
2020/12/01 01:17:09;;;;;;;19.55;3.83;;;8.00;99.90;;;;;;5115991;28;20421;-90
2020/12/01 01:19:36;;;;;;;19.43;2.60;;;8.10;99.90;;;;;;5116725;28;20196;-91
2020/12/01 01:22:03;;;;;;;12.23;2.47;;;8.10;99.90;;;;;;5117361;28;20197;-93
2020/12/01 01:24:29;;;;;;;20.10;3.10;;;8.10;99.90;;;;;;5116963;28;20240;-93
2020/12/01 01:26:56;;;;;;;19.67;3.17;;;8.10;99.90;;;;;;5116785;28;20208;-93
2020/12/01 01:29:24;;;;;;;18.63;2.90;;;8.00;99.90;;;;;;5116394;28;20228;-92
2020/12/01 01:31:53;;;;;;;15.40;3.30;;;8.00;99.90;;;;;;5116564;28;20192;-91
2020/12/01 01:34:19;;;;;;;16.03;3.30;;;8.10;99.90;;;;;;5116522;28;20639;-91
2020/12/01 01:36:46;;;;;;;17.20;2.93;;;8.00;99.90;;;;;;5116816;28;20220;-94
2020/12/01 01:39:14;;;;;;;13.10;2.83;;;8.00;99.90;;;;;;5098209;28;20224;-93
2020/12/01 01:41:42;;;;;;;17.53;2.90;;;8.00;99.90;;;;;;5116846;28;20226;-92
2020/12/01 01:44:20;;;;;;;21.73;3.80;;;8.00;99.90;;;;;;5116146;28;20220;-91
2020/12/01 01:46:49;;;;;;;23.57;3.90;;;7.90;99.90;;;;;;5116128;28;20200;-91
2020/12/01 01:49:19;;;;;;;16.37;2.93;;;7.80;99.90;;;;;;5097360;28;20429;-90
2020/12/01 01:51:51;;;;;;;20.67;3.33;;;7.80;99.90;;;;;;5116148;28;20192;-92
2020/12/01 01:54:19;;;;;;;15.37;3.77;;;7.90;99.90;;;;;;5115728;28;20648;-92
2020/12/01 01:56:50;;;;;;;17.50;3.13;;;7.90;99.90;;;;;;5115992;28;20201;-92
2020/12/01 01:59:17;;;;;;;19.10;3.10;;;7.90;99.90;;;;;;5115829;28;20228;-92
2020/12/01 02:01:44;;;;;;;23.67;3.80;;;7.90;99.90;;;;;;5116488;28;20204;-91
2020/12/01 02:04:12;;;;;;;21.53;3.23;;;7.80;99.90;;;;;;5115631;28;20267;-90
2020/12/01 02:06:42;;;;;;;23.10;3.40;;;7.80;99.90;;;;;;5098004;28;20247;-91
2020/12/01 02:09:12;;;;;;;15.63;3.30;;;7.90;99.90;;;;;;5117188;28;20224;-91
2020/12/01 02:11:42;;;;;;;24.47;4.13;;;7.90;99.90;;;;;;5117150;28;20626;-90
2020/12/01 02:14:12;;;;;;;21.63;3.63;;;7.90;99.90;;;;;;5115901;28;20216;-90
2020/12/01 02:16:41;;;;;;;20.73;4.53;;;7.90;99.90;;;;;;5115455;28;20200;-91
2020/12/01 02:19:12;;;;;;;25.30;4.23;;;8.00;99.90;;;;;;5115577;28;20220;-90
2020/12/01 02:21:40;;;;;;;23.80;3.50;;;8.00;99.90;;;;;;5115626;28;20200;-91
2020/12/01 02:24:10;;;;;;;22.90;3.57;;;8.00;99.90;;;;;;5115914;28;20593;-91
2020/12/01 02:26:37;;;;;;;23.03;3.63;;;7.90;99.90;;;;;;5115375;28;20195;-90
2020/12/01 02:29:05;;;;;;;15.97;3.83;;;7.90;99.90;;;;;;5115340;28;20229;-94
2020/12/01 02:31:32;;;;;;;19.97;3.60;;;7.90;99.90;;;;;;5115324;28;20193;-91
2020/12/01 02:33:59;;;;;;;19.03;3.50;;;8.00;99.90;;;;;;5097400;28;20204;-89
2020/12/01 02:36:25;;;;;;;16.53;2.97;;;8.00;99.90;;;;;;5115987;28;20207;-90
2020/12/01 02:38:51;;;;;;;16.13;3.77;;;8.00;99.90;;;;;;5114645;28;20235;-90
2020/12/01 02:41:18;;;;;;;16.97;2.40;;;7.90;99.90;;;;;;5115695;28;20559;-91
2020/12/01 02:43:45;;;;;;;16.83;2.97;;;7.90;99.90;;;;;;5115277;28;20232;-92
2020/12/01 02:46:11;;;;;;;18.27;2.80;;;7.90;99.90;;;;;;5115507;28;20212;-90
2020/12/01 02:48:38;;;;;;;14.93;2.23;;;7.90;99.90;;;;;;5114913;28;20216;-90
2020/12/01 02:51:04;;;;;;;12.47;2.43;;;7.90;99.90;;;;;;5115133;28;20204;-91
2020/12/01 02:53:31;;;;;;;11.07;2.33;;;7.90;99.90;;;;;;5115173;28;20200;-90
2020/12/01 02:55:57;;;;;;;9.03;2.43;;;7.90;99.90;;;;;;5114766;28;20189;-91
2020/12/01 02:58:24;;;;;;;14.57;2.30;;;7.90;99.90;;;;;;5114542;28;20688;-91
2020/12/01 03:00:51;;;;;;;11.70;1.90;;;7.90;99.90;;;;;;5115537;28;20210;-89
2020/12/01 03:03:17;;;;;;;10.27;2.30;;;7.80;99.90;;;;;;5114640;28;20239;-92
2020/12/01 03:05:43;;;;;;;12.17;2.47;;;7.90;99.90;;;;;;5115435;28;20568;-92
2020/12/01 03:08:10;;;;;;;15.80;2.40;;;7.90;99.90;;;;;;5114905;28;20596;-90
2020/12/01 03:10:37;;;;;;;10.67;2.00;;;7.90;99.90;;;;;;5115485;28;20386;-93
2020/12/01 03:13:03;;;;;;;15.37;3.03;;;7.90;99.90;;;;;;5114993;28;20556;-89
2020/12/01 03:15:30;;;;;;;15.50;3.57;;;7.90;99.90;;;;;;5115149;28;20214;-91
2020/12/01 03:17:57;;;;;;;9.50;2.07;;;7.80;99.90;;;;;;5114731;28;20303;-92
2020/12/01 03:20:23;;;;;;;12.00;2.37;;;7.70;99.90;;;;;;5114892;28;20216;-92
2020/12/01 03:22:50;;;;;;;10.27;3.13;;;7.60;99.90;;;;;;5097394;28;20205;-92
2020/12/01 03:25:17;;;;;;;15.45;2.83;;;7.60;99.90;;;;;;5114733;28;20881;-92
2020/12/01 03:27:43;;;;;;;11.90;2.70;;;7.50;99.90;;;;;;5114597;28;20605;-90
2020/12/01 03:30:10;;;;;;;9.27;3.33;;;7.60;99.90;;;;;;5114758;28;20185;-90
2020/12/01 03:32:36;;;;;;;11.83;2.13;;;7.60;99.90;;;;;;5115405;28;20208;-93
2020/12/01 03:35:03;;;;;;;10.20;2.20;;;7.60;99.90;;;;;;5114703;28;20287;-92
2020/12/01 03:37:31;;;;;;;7.80;1.50;;;7.50;99.90;;;;;;5114868;28;20224;-94
2020/12/01 03:39:57;;;;;;;9.00;2.00;;;7.50;99.90;;;;;;5114360;28;20200;-91
2020/12/01 03:42:23;;;;;;;9.47;1.87;;;7.50;99.90;;;;;;5114445;28;20644;-89
2020/12/01 03:44:50;;;;;;;6.77;1.40;;;7.60;99.90;;;;;;5113830;28;20572;-89
2020/12/01 03:47:16;;;;;;;9.47;1.73;;;7.50;99.90;;;;;;5114724;28;20556;-91
2020/12/01 03:49:43;;;;;;;7.47;1.40;;;7.60;99.90;;;;;;5115433;28;20200;-91
2020/12/01 03:52:10;;;;;;;8.07;1.60;;;7.60;99.90;;;;;;5118095;28;20643;-91
2020/12/01 03:54:37;;;;;;;6.03;1.37;;;7.60;99.90;;;;;;5117999;28;20204;-93
2020/12/01 03:57:03;;;;;;;8.83;2.23;;;7.60;99.90;;;;;;5117919;28;20205;-90
2020/12/01 03:59:30;;;;;;;7.10;1.20;;;7.60;99.90;;;;;;5118373;28;20208;-91
2020/12/01 04:01:56;;;;;;;8.70;1.30;;;7.50;99.90;;;;;;5118862;28;20197;-91
2020/12/01 04:04:28;;;;;;;6.20;1.43;;;7.50;99.90;;;;;;5117724;28;20716;-91
2020/12/01 04:06:55;;;;;;;6.23;1.40;;;7.50;99.90;;;;;;5118317;28;20298;-92
2020/12/01 04:09:22;;;;;;;7.00;1.40;;;7.60;99.90;;;;;;5118073;28;20246;-91
2020/12/01 04:11:49;;;;;;;7.80;1.30;;;7.60;99.90;;;;;;5117851;28;20209;-93
2020/12/01 04:14:15;;;;;;;7.00;1.50;;;7.60;99.90;;;;;;5118414;28;20203;-92
2020/12/01 04:16:42;;;;;;;4.33;1.27;;;7.50;99.90;;;;;;5118644;28;20598;-93
2020/12/01 04:19:09;;;;;;;7.63;1.20;;;7.60;99.90;;;;;;5118794;28;20232;-90
2020/12/01 04:21:35;;;;;;;7.43;1.50;;;7.50;99.90;;;;;;5119904;28;20231;-91
2020/12/01 04:24:01;;;;;;;4.73;1.40;;;7.50;99.90;;;;;;5120337;28;20742;-91
2020/12/01 04:26:29;;;;;;;11.70;1.73;;;7.40;99.90;;;;;;5117871;28;20200;-90
2020/12/01 04:28:55;;;;;;;6.63;1.87;;;7.40;99.90;;;;;;5117678;28;20200;-90
2020/12/01 04:31:22;;;;;;;11.30;1.83;;;7.40;99.90;;;;;;5117877;28;20284;-90
2020/12/01 04:33:48;;;;;;;6.83;1.60;;;7.50;99.90;;;;;;5118303;28;20287;-89
2020/12/01 04:36:15;;;;;;;8.73;1.60;;;7.40;99.90;;;;;;5099737;28;20204;-90
2020/12/01 04:38:41;;;;;;;7.63;1.83;;;7.40;99.90;;;;;;5117817;28;20251;-92
2020/12/01 04:41:10;;;;;;;8.63;1.63;;;7.50;99.90;;;;;;5117780;28;20619;-92
2020/12/01 04:43:44;;;;;;;8.13;1.50;;;7.40;99.90;;;;;;5118150;28;20595;-90
2020/12/01 04:46:15;;;;;;;15.43;2.00;;;7.40;99.90;;;;;;5099927;28;20195;-91
2020/12/01 04:48:45;;;;;;;9.27;2.77;;;7.50;99.90;;;;;;5119920;28;20231;-92
2020/12/01 04:51:29;;;;;;;5.53;1.93;;;7.50;99.90;;;;;;5119055;28;20204;-92
2020/12/01 04:54:15;;;;;;;9.00;1.80;;;7.60;99.90;;;;;;5117713;28;20189;-91
2020/12/01 04:57:12;;;;;;;9.90;1.90;;;7.60;99.90;;;;;;5117792;28;20210;-93
2020/12/01 05:00:00;;;;;;;11.17;1.83;;;7.60;99.90;;;;;;5117674;28;20192;-95
2020/12/01 05:02:51;;;;;;;9.60;2.40;;;7.60;99.90;;;;;;5113096;28;20204;-92
2020/12/01 05:05:36;;;;;;;13.17;2.20;;;7.70;99.90;;;;;;5117490;28;20232;-91
2020/12/01 05:08:28;;;;;;;7.60;1.90;;;7.60;99.90;;;;;;5118101;28;20232;-96
2020/12/01 05:10:57;;;;;;;12.73;2.20;;;7.70;99.90;;;;;;5117914;28;20205;-92
2020/12/01 05:13:26;;;;;;;11.10;2.23;;;7.70;99.90;;;;;;5117648;28;20588;-90
2020/12/01 05:15:57;;;;;;;8.97;1.53;;;7.70;99.90;;;;;;5117023;28;20211;-95
2020/12/01 05:18:26;;;;;;;8.33;1.50;;;7.70;99.90;;;;;;5117474;28;20231;-94
2020/12/01 05:20:54;;;;;;;11.33;1.60;;;7.70;99.90;;;;;;5117105;28;20262;-91
2020/12/01 05:23:26;;;;;;;7.73;1.67;;;7.70;99.90;;;;;;5116576;28;20200;-92
2020/12/01 05:26:00;;;;;;;6.07;1.27;;;7.70;99.90;;;;;;5116967;28;20550;-92
2020/12/01 05:28:27;;;;;;;7.23;1.37;;;7.80;99.90;;;;;;5116650;28;20224;-92
2020/12/01 05:31:04;;;;;;;7.00;1.60;;;7.80;99.90;;;;;;5117023;28;20622;-95
2020/12/01 05:33:32;;;;;;;13.30;2.55;;;7.80;99.90;;;;;;5115657;28;20429;-92
2020/12/01 05:36:03;;;;;;;8.67;1.70;;;8.00;99.90;;;;;;5116200;28;20199;-90
2020/12/01 05:38:32;;;;;;;10.23;2.00;;;7.90;99.90;;;;;;5115974;28;20238;-90
2020/12/01 05:41:02;;;;;;;5.43;1.50;;;8.00;99.90;;;;;;5119201;28;20203;-96
2020/12/01 05:43:32;;;;;;;12.53;2.00;;;8.00;99.90;;;;;;5121786;28;20647;-92
2020/12/01 05:46:27;;;;;;;13.40;2.00;;;7.90;99.90;;;;;;5125116;28;20197;-95
2020/12/01 05:49:05;;;;;;;17.33;2.70;;;8.00;99.90;;;;;;5127325;28;20225;-94
2020/12/01 05:51:43;;;;;;;14.83;2.97;;;8.00;99.90;;;;;;5126774;28;20639;-93
2020/12/01 05:54:21;;;;;;;17.83;2.93;;;8.00;99.90;;;;;;5128650;28;20208;-94
2020/12/01 05:56:49;;;;;;;13.93;3.03;;;8.10;99.90;;;;;;5126354;28;20212;-93
2020/12/01 05:59:18;;;;;;;24.23;4.00;;;8.10;99.90;;;;;;5122556;28;20709;-93
2020/12/01 06:01:54;;;;;;;17.27;3.73;;;8.20;99.90;;;;;;5122911;28;20235;-92
2020/12/01 06:04:24;;;;;;;19.60;3.40;;;8.10;99.90;;;;;;5106463;28;20232;-91
2020/12/01 06:10:15;;;;;;;21.23;4.00;;;8.10;99.90;;;;;;5124177;28;20204;-93
2020/12/01 06:13:14;;;;;;;21.37;4.70;;;8.20;99.90;;;;;;5107434;28;20561;-94
2020/12/01 06:15:53;;;;;;;23.67;4.33;;;8.10;99.90;;;;;;5124884;28;20219;-93
2020/12/01 06:18:31;;;;;;;18.00;4.07;;;8.10;99.90;;;;;;5121956;28;20231;-94
2020/12/01 06:21:15;;;;;;;31.90;4.90;;;8.20;99.90;;;;;;5124185;28;20204;-93
2020/12/01 06:33:31;;;;;;;34.57;5.90;;;8.20;99.90;;;;;;5018118;28;20211;-93
2020/12/01 06:36:31;;;;;;;36.07;5.53;;;8.30;99.90;;;;;;5066134;28;20210;-95
2020/12/01 06:39:20;;;;;;;36.33;5.33;;;8.40;99.90;;;;;;5030268;28;20700;-92
2020/12/01 06:41:54;;;;;;;35.40;4.60;;;8.40;99.90;;;;;;5063611;28;20207;-92
2020/12/01 06:44:26;;;;;;;28.37;6.40;;;8.40;99.90;;;;;;5065104;28;20230;-92
2020/12/01 06:46:56;;;;;;;35.10;4.83;;;8.40;99.90;;;;;;5060551;28;20207;-93
2020/12/01 06:49:28;;;;;;;34.67;5.90;;;8.40;99.90;;;;;;5061721;28;20218;-92
2020/12/01 06:51:56;;;;;;;25.37;5.30;;;8.30;99.90;;;;;;5063147;28;20199;-93
2020/12/01 06:54:24;;;;;;;28.83;4.40;;;8.30;99.90;;;;;;5062580;28;20211;-93
2020/12/01 06:57:00;;;;;;;28.50;4.70;;;8.30;99.90;;;;;;5062368;28;20268;-94
2020/12/01 06:59:56;;;;;;;26.90;4.70;;;8.20;99.90;;;;;;5061170;28;20195;-92
2020/12/01 07:02:30;;;;;;;34.17;5.33;;;8.20;99.90;;;;;;5061964;28;20320;-93
2020/12/01 07:08:28;;;;;;;25.53;3.83;;;8.20;99.90;;;;;;5063024;28;20222;-93
2020/12/01 07:13:56;;;;;;;20.03;3.67;;;8.30;99.90;;;;;;5065059;28;20253;-92
2020/12/01 07:16:33;;;;;;;23.23;4.50;;;8.30;99.90;;;;;;5063894;28;20206;-94
2020/12/01 07:19:10;;;;;;;16.97;3.40;;;8.30;99.90;;;;;;5063541;28;20222;-94
2020/12/01 07:22:02;;;;;;;31.70;5.37;;;8.40;99.90;;;;;;5065050;28;20203;-95
2020/12/01 07:24:46;;;;;;;32.07;5.03;;;8.40;99.90;;;;;;5063823;28;20268;-93
2020/12/01 07:27:30;;;;;;;26.37;6.47;;;8.40;99.90;;;;;;5069051;28;20661;-94
2020/12/01 07:30:13;;;;;;;25.40;5.20;;;8.50;99.90;;;;;;5070432;28;20225;-93
2020/12/01 07:32:50;;;;;;;29.57;4.97;;;8.40;99.90;;;;;;5078682;28;20214;-93
2020/12/01 07:35:34;;;;;;;31.93;4.60;;;8.50;99.90;;;;;;5081042;28;20182;-92
2020/12/01 07:38:32;;;;;;;22.30;4.70;;;8.50;99.90;;;;;;5080728;28;20229;-94
2020/12/01 07:41:22;;;;;;;25.77;4.13;;;8.60;99.90;;;;;;5078672;28;20207;-94
2020/12/01 07:44:24;;;;;;;19.83;3.60;;;8.50;99.90;;;;;;5080006;28;20218;-95
2020/12/01 07:47:07;;;;;;;31.53;5.77;;;8.60;99.90;;;;;;5077793;28;20722;-94
2020/12/01 07:49:39;;;;;;;23.97;4.40;;;8.60;99.90;;;;;;5077776;28;20267;-93
2020/12/01 07:52:18;;;;;;;24.97;4.20;;;8.50;99.90;;;;;;5071898;28;20206;-93
2020/12/01 07:55:05;;;;;;;26.50;4.13;;;8.40;99.90;;;;;;5074760;28;20202;-93
2020/12/01 07:57:37;;;;;;;32.60;4.37;;;8.30;99.90;;;;;;5069654;28;20230;-93
2020/12/01 08:00:16;;;;;;;28.70;4.93;;;8.30;99.90;;;;;;5049465;28;20225;-93
2020/12/01 08:02:44;;;;;;;26.80;4.63;;;8.40;99.90;;;;;;5071893;28;20202;-94
2020/12/01 08:05:14;;;;;;;30.13;4.53;;;8.40;99.90;;;;;;5070060;28;20256;-92
2020/12/01 08:07:53;;;;;;;20.57;3.73;;;8.40;99.90;;;;;;5072134;28;20227;-94
2020/12/01 08:10:29;;;;;;;45.30;7.33;;;8.40;99.90;;;;;;5073128;28;20271;-93
2020/12/01 08:13:09;;;;;;;30.77;5.07;;;8.40;99.90;;;;;;5073174;28;20240;-91
2020/12/01 08:15:46;;;;;;;27.13;4.57;;;8.50;99.90;;;;;;5074680;28;20214;-94
2020/12/01 08:18:15;;;;;;;26.27;3.97;;;8.50;99.90;;;;;;5069832;28;20210;-93
2020/12/01 08:20:43;;;;;;;25.67;5.13;;;8.60;99.90;;;;;;5059529;28;20198;-87
2020/12/01 08:23:13;;;;;;;23.73;4.53;;;8.60;99.90;;;;;;5058099;28;20194;-88
2020/12/01 08:25:40;;;;;;;25.90;3.67;;;8.70;99.90;;;;;;5058913;28;20228;-90
2020/12/01 08:28:26;;;;;;;15.37;3.63;;;8.70;99.90;;;;;;5058287;28;20682;-87
2020/12/01 08:30:58;;;;;;;23.90;4.70;;;8.80;99.90;;;;;;5057892;28;20225;-86
2020/12/01 08:34:02;;;;;;;26.60;4.83;;;8.80;99.90;;;;;;5057085;28;20201;-88
2020/12/01 08:36:45;;;;;;;20.27;4.23;;;8.90;99.90;;;;;;5022888;28;20256;-88
2020/12/01 08:39:41;;;;;;;14.20;3.60;;;8.90;99.90;;;;;;5057093;28;20229;-89
2020/12/01 08:42:16;;;;;;;14.40;3.00;;;9.00;99.90;;;;;;5056597;28;20202;-90
2020/12/01 08:44:49;;;;;;;13.77;3.30;;;9.00;99.90;;;;;;5056283;28;20712;-88
2020/12/01 08:47:22;;;;;;;10.90;2.53;;;9.00;99.90;;;;;;5056776;28;20278;-89
2020/12/01 08:49:50;;;;;;;20.90;4.30;;;9.00;99.90;;;;;;5057763;28;20203;-87
2020/12/01 08:52:28;;;;;;;24.97;4.70;;;9.10;99.90;;;;;;5056701;28;20676;-87
2020/12/01 08:54:57;;;;;;;17.00;3.37;;;9.10;99.90;;;;;;5056909;28;20242;-87
2020/12/01 08:57:28;;;;;;;19.63;3.70;;;9.00;99.90;;;;;;5056610;28;20566;-88
2020/12/01 09:00:04;;;;;;;19.60;3.47;;;8.80;99.90;;;;;;5056067;28;20248;-91
2020/12/01 09:02:38;;;;;;;20.93;4.03;;;8.80;99.90;;;;;;5055392;28;20210;-89
2020/12/01 09:05:05;;;;;;;21.07;3.27;;;8.70;99.90;;;;;;5055669;28;20218;-90
2020/12/01 09:07:35;;;;;;;28.30;5.27;;;8.70;99.90;;;;;;5055934;28;20234;-90
2020/12/01 09:10:15;;;;;;;19.30;3.50;;;8.60;99.90;;;;;;5055906;28;20657;-90
2020/12/01 09:12:47;;;;;;;23.60;4.53;;;8.70;99.90;;;;;;5038165;28;20206;-91
2020/12/01 09:15:38;;;;;;;21.50;3.50;;;8.70;99.90;;;;;;5055900;28;20187;-90
2020/12/01 09:18:27;;;;;;;24.17;5.13;;;8.70;99.90;;;;;;5055156;28;20456;-91
2020/12/01 09:21:04;;;;;;;25.40;4.83;;;8.70;99.90;;;;;;5055914;28;20195;-90
2020/12/01 09:23:35;;;;;;;19.80;3.87;;;8.80;99.90;;;;;;5055618;28;20256;-89
2020/12/01 09:26:03;;;;;;;18.73;4.40;;;8.80;99.90;;;;;;5055316;28;20320;-90
2020/12/01 09:28:32;;;;;;;19.80;3.73;;;8.80;99.90;;;;;;5055474;28;20257;-91
2020/12/01 09:31:01;;;;;;;20.53;3.40;;;8.90;99.90;;;;;;5055409;28;20206;-90
2020/12/01 09:33:29;;;;;;;15.87;3.43;;;9.00;99.90;;;;;;5055551;28;20195;-91
2020/12/01 09:35:55;;;;;;;18.23;4.73;;;9.10;99.90;;;;;;5055369;28;20194;-90
2020/12/01 09:38:22;;;;;;;15.87;3.43;;;9.20;99.90;;;;;;5055704;28;20688;-90
2020/12/01 09:40:51;;;;;;;18.67;3.63;;;9.20;99.90;;;;;;5055591;28;20198;-91
2020/12/01 09:43:24;;;;;;;24.70;3.53;;;9.20;99.90;;;;;;5055693;28;20198;-89
2020/12/01 09:45:52;;;;;;;18.30;3.30;;;9.30;99.90;;;;;;5055352;28;20618;-91
2020/12/01 09:48:25;;;;;;;17.83;3.90;;;9.40;99.90;;;;;;5054259;28;20226;-90
2020/12/01 09:50:53;;;;;;;20.97;4.07;;;9.40;99.90;;;;;;5055397;28;20236;-90
2020/12/01 09:53:40;;;;;;;19.47;3.60;;;9.40;99.90;;;;;;5037951;28;20191;-90
2020/12/01 09:56:13;;;;;;;24.60;4.63;;;9.40;99.90;;;;;;5054721;28;20591;-90
2020/12/01 10:09:47;;;;;;;17.50;3.67;;;9.60;99.90;;;;;;5055244;28;20197;-89
2020/12/01 10:18:28;;;;;;;19.90;3.83;;;9.90;99.90;;;;;;5054906;28;20301;-91
2020/12/01 10:35:24;;;;;;;15.63;3.00;;;10.00;99.90;;;;;;5037391;28;20241;-91
2020/12/01 10:37:52;;;;;;;15.47;2.90;;;10.00;99.90;;;;;;5035947;28;20252;-89
2020/12/01 10:40:20;;;;;;;11.63;2.90;;;10.00;99.90;;;;;;5034701;28;20195;-90
2020/12/01 10:54:42;;;;;;;11.33;2.80;;;10.10;99.90;;;;;;5050006;22;20267;-93
2020/12/01 10:57:35;;;;;;;12.80;2.87;;;10.20;99.90;;;;;;5055134;22;20250;-94
2020/12/01 11:00:41;;;;;;;9.57;2.30;;;10.20;99.90;;;;;;5140818;22;20209;-93
2020/12/01 11:21:45;;;;;;;17.97;3.07;;;10.50;99.90;;;;;;5074682;28;20186;-96
2020/12/01 11:24:12;;;;;;;13.80;2.70;;;10.50;99.90;;;;;;5072143;28;20226;-92
2020/12/01 11:26:43;;;;;;;14.57;3.00;;;10.50;99.90;;;;;;5071489;28;20256;-94
2020/12/01 11:29:10;;;;;;;19.13;3.07;;;10.60;99.90;;;;;;5063258;28;20226;-93
2020/12/01 11:31:43;;;;;;;14.53;2.83;;;10.60;99.90;;;;;;5066641;28;20646;-90
2020/12/01 11:34:13;;;;;;;13.17;3.13;;;10.60;99.90;;;;;;5070063;28;20541;-93
2020/12/01 11:36:41;;;;;;;11.27;2.37;;;10.60;99.90;;;;;;5065122;28;20289;-89
2020/12/01 11:39:10;;;;;;;16.90;2.90;;;10.60;99.90;;;;;;5060668;28;20303;-91
2020/12/01 11:41:37;;;;;;;15.00;3.37;;;10.80;99.90;;;;;;5061453;28;20286;-93
2020/12/01 11:44:07;;;;;;;11.83;2.17;;;10.80;99.90;;;;;;5059999;28;20281;-93
2020/12/01 11:46:34;;;;;;;16.40;2.93;;;10.80;99.90;;;;;;5056216;28;20222;-92
2020/12/01 11:49:02;;;;;;;21.87;3.27;;;10.80;99.90;;;;;;5055251;28;20317;-93
2020/12/01 11:51:29;;;;;;;16.73;3.03;;;10.90;99.90;;;;;;5056974;28;20226;-93
2020/12/01 11:53:56;;;;;;;14.10;3.00;;;10.90;99.90;;;;;;5059086;28;20338;-92
2020/12/01 11:56:24;;;;;;;13.87;3.77;;;10.70;99.90;;;;;;5059364;28;20207;-94
2020/12/01 11:58:51;;;;;;;12.53;2.60;;;10.50;99.90;;;;;;5043033;28;20253;-95
2020/12/01 12:01:18;;;;;;;15.97;2.80;;;10.40;99.90;;;;;;5062966;28;20206;-79
2020/12/01 12:03:45;;;;;;;12.40;2.67;;;10.20;99.90;;;;;;5053215;28;20217;-78
2020/12/01 12:06:13;;;;;;;10.60;2.70;;;10.20;99.90;;;;;;5052968;28;20242;-82
2020/12/01 12:08:40;;;;;;;10.50;2.30;;;10.20;99.90;;;;;;5052957;28;20342;-80
2020/12/01 12:11:07;;;;;;;9.33;2.10;;;10.30;99.90;;;;;;5054381;28;20213;-83
2020/12/01 12:13:33;;;;;;;9.17;2.37;;;10.20;99.90;;;;;;5056710;28;20594;-82
2020/12/01 12:15:59;;;;;;;10.53;3.00;;;10.30;99.90;;;;;;5056615;28;20217;-81
2020/12/01 12:18:26;;;;;;;11.73;2.83;;;10.30;99.90;;;;;;5056141;28;20233;-80
2020/12/01 12:20:53;;;;;;;10.07;2.50;;;10.40;99.90;;;;;;5057013;28;20195;-86
2020/12/01 12:23:20;;;;;;;11.37;2.60;;;10.30;99.90;;;;;;5056876;28;20213;-82
2020/12/01 12:25:47;;;;;;;11.83;3.23;;;10.40;99.90;;;;;;5056354;28;20310;-82
2020/12/01 12:28:14;;;;;;;16.00;3.00;;;10.40;99.90;;;;;;5056214;28;20681;-85
2020/12/01 12:30:40;;;;;;;14.90;3.13;;;10.40;99.90;;;;;;5056295;28;20194;-84
2020/12/01 12:33:07;;;;;;;19.60;3.03;;;10.40;99.90;;;;;;5046474;28;20233;-77
2020/12/01 12:35:33;;;;;;;16.40;3.33;;;10.40;99.90;;;;;;5056060;28;20202;-79
2020/12/01 12:38:00;;;;;;;13.47;2.80;;;10.50;99.90;;;;;;5056261;28;20244;-80
2020/12/01 12:40:27;;;;;;;17.63;3.90;;;10.50;99.90;;;;;;5057652;28;20187;-79
2020/12/01 12:42:54;;;;;;;13.57;3.03;;;10.70;99.90;;;;;;5057078;28;20194;-78
2020/12/01 12:45:20;;;;;;;21.03;3.57;;;10.70;99.90;;;;;;5055760;28;20230;-78
2020/12/01 12:47:47;;;;;;;14.27;3.37;;;10.70;99.90;;;;;;5055789;28;20222;-82
2020/12/01 12:50:13;;;;;;;19.73;3.20;;;10.60;99.90;;;;;;5054965;28;20213;-81
2020/12/01 12:52:39;;;;;;;22.57;3.80;;;10.60;99.90;;;;;;5055288;28;20209;-82
2020/12/01 12:55:07;;;;;;;18.23;4.10;;;10.60;99.90;;;;;;5054944;28;20206;-81
2020/12/01 12:57:34;;;;;;;15.07;3.60;;;10.80;99.90;;;;;;5055285;28;20222;-83
2020/12/01 13:00:00;;;;;;;15.73;2.80;;;10.90;99.90;;;;;;5055272;28;20199;-82
2020/12/01 13:02:26;;;;;;;12.37;3.50;;;10.70;99.90;;;;;;5055321;28;20210;-84
2020/12/01 13:04:53;;;;;;;12.70;3.07;;;10.60;99.90;;;;;;5055562;28;20223;-82
2020/12/01 13:07:19;;;;;;;12.50;3.27;;;10.40;99.90;;;;;;5055475;28;20202;-83
2020/12/01 13:09:46;;;;;;;14.60;3.93;;;10.30;99.90;;;;;;5055677;28;20213;-82
2020/12/01 13:12:12;;;;;;;16.00;3.33;;;10.30;99.90;;;;;;5056019;28;20202;-79
2020/12/01 13:14:39;;;;;;;18.07;3.70;;;10.40;99.90;;;;;;5056031;28;20550;-80
2020/12/01 13:17:06;;;;;;;19.27;3.20;;;10.40;99.90;;;;;;5055744;28;20198;-79
2020/12/01 13:19:32;;;;;;;15.80;3.10;;;10.50;99.90;;;;;;5055432;28;20572;-78
2020/12/01 13:21:58;;;;;;;16.93;4.13;;;10.40;99.90;;;;;;5055326;28;20213;-81
2020/12/01 13:24:25;;;;;;;14.67;3.43;;;10.30;99.90;;;;;;5056112;28;20199;-78
2020/12/01 13:26:52;;;;;;;17.87;3.40;;;10.30;99.90;;;;;;5055011;28;20209;-81
2020/12/01 13:29:18;;;;;;;16.50;3.77;;;10.30;99.90;;;;;;5055145;28;20222;-82
2020/12/01 13:31:48;;;;;;;17.10;3.20;;;10.30;99.90;;;;;;5055031;28;20190;-79
2020/12/01 13:34:15;;;;;;;15.10;3.97;;;10.30;99.90;;;;;;5054977;28;20183;-84
2020/12/01 13:36:41;;;;;;;16.97;3.37;;;10.30;99.90;;;;;;5055028;28;20216;-83
2020/12/01 13:39:09;;;;;;;15.20;3.37;;;10.30;99.90;;;;;;5054397;28;20230;-79
2020/12/01 13:41:35;;;;;;;17.60;3.83;;;10.50;99.90;;;;;;5054761;28;20208;-81
2020/12/01 13:44:02;;;;;;;15.83;3.63;;;10.50;99.90;;;;;;5055026;28;20638;-85
2020/12/01 13:46:29;;;;;;;20.50;3.53;;;10.50;99.90;;;;;;5054649;28;20233;-79
2020/12/01 13:48:56;;;;;;;22.70;3.97;;;10.40;99.90;;;;;;5054829;28;20237;-81
2020/12/01 13:51:23;;;;;;;15.77;3.40;;;10.50;99.90;;;;;;5055080;28;20197;-81
2020/12/01 13:53:49;;;;;;;14.77;3.80;;;10.40;99.90;;;;;;5054975;28;20190;-79
2020/12/01 13:56:15;;;;;;;15.27;3.67;;;10.40;99.90;;;;;;5055053;28;20200;-79
2020/12/01 13:58:42;;;;;;;14.60;3.77;;;10.40;99.90;;;;;;5054664;28;20712;-82
2020/12/01 14:01:08;;;;;;;18.43;3.80;;;10.40;99.90;;;;;;5054922;28;20191;-81
2020/12/01 14:03:35;;;;;;;17.43;3.70;;;10.50;99.90;;;;;;5054562;28;20217;-83
2020/12/01 14:06:37;;;;;;;19.10;4.03;;;10.60;99.90;;;;;;5059108;28;20237;-93
2020/12/01 14:09:37;;;;;;;21.13;3.43;;;10.80;99.90;;;;;;5061161;28;20237;-92
2020/12/01 14:12:32;;;;;;;11.53;2.87;;;10.90;99.90;;;;;;5061372;28;20203;-93
2020/12/01 14:15:05;;;;;;;21.60;3.60;;;10.80;99.90;;;;;;5060892;28;20190;-94
2020/12/01 14:33:49;;;;;;;17.83;3.57;;;9.90;99.90;;;;;;4967782;28;20680;-93
2020/12/01 14:45:30;;;;;;;13.80;2.30;;;9.90;99.90;;;;;;5110813;22;20618;-93
2020/12/01 14:58:07;;;;;;;21.90;3.70;;;10.00;99.90;;;;;;5113122;22;20231;-93
2020/12/01 15:00:51;;;;;;;13.77;3.67;;;10.00;99.90;;;;;;5044975;28;20210;-93
2020/12/01 15:03:53;;;;;;;17.40;4.00;;;10.10;99.90;;;;;;5035734;28;20202;-91